Time;durP1;ratioP1;P1;durP2;ratioP2;P2;SDS_P1;SDS_P2;PMS_P1;PMS_P2;Temp;Humidity;BMP_temperature;BMP_pressure;BME280_temperature;BME280_humidity;BME280_pressure;Samples;Min_cycle;Max_cycle;Signal;HPM_P1;HPM_P2
2023/07/08 00:02:41;;;;;;;7.75;3.60;;;22.10;99.90;;;;;;5029715;28;20049;-70
2023/07/08 00:05:47;;;;;;;7.78;4.07;;;22.00;99.90;;;;;;5029915;28;20057;-69
2023/07/08 00:08:50;;;;;;;7.85;3.67;;;22.00;99.90;;;;;;5029829;28;20388;-70
2023/07/08 00:11:54;;;;;;;7.45;3.58;;;22.00;99.90;;;;;;5029425;28;20048;-70
2023/07/08 00:14:58;;;;;;;8.77;3.38;;;22.00;99.90;;;;;;5029675;28;20044;-70
2023/07/08 00:18:14;;;;;;;10.98;4.00;;;22.00;99.90;;;;;;5030284;28;20049;-70
2023/07/08 00:21:18;;;;;;;10.30;4.28;;;22.00;99.90;;;;;;5029613;28;20048;-69
2023/07/08 00:24:22;;;;;;;9.68;3.83;;;22.10;99.90;;;;;;5029744;28;20044;-70
2023/07/08 00:27:25;;;;;;;7.63;3.63;;;22.20;99.90;;;;;;5029759;28;20045;-69
2023/07/08 00:30:31;;;;;;;5.93;3.28;;;22.20;99.90;;;;;;5017691;28;20040;-69
2023/07/08 00:33:35;;;;;;;6.57;3.40;;;22.30;99.90;;;;;;5029561;28;20045;-70
2023/07/08 00:36:39;;;;;;;8.45;2.97;;;22.30;99.90;;;;;;5033560;28;20396;-70
2023/07/08 00:39:43;;;;;;;9.10;3.47;;;22.30;99.90;;;;;;5021231;28;20037;-71
2023/07/08 00:42:50;;;;;;;6.70;3.72;;;22.30;99.90;;;;;;5033109;28;20056;-69
2023/07/08 00:46:24;;;;;;;6.75;3.50;;;22.30;99.90;;;;;;5033197;28;20498;-70
2023/07/08 00:49:53;;;;;;;7.50;4.10;;;22.30;99.90;;;;;;5013489;28;20043;-69
2023/07/08 00:53:22;;;;;;;13.57;4.00;;;22.30;99.90;;;;;;5020816;28;20048;-70
2023/07/08 00:56:33;;;;;;;8.85;3.60;;;22.20;99.90;;;;;;5033394;28;20044;-70
2023/07/08 01:00:08;;;;;;;11.32;3.38;;;22.20;99.90;;;;;;5021274;28;20049;-70
2023/07/08 01:03:13;;;;;;;7.43;3.80;;;22.00;99.90;;;;;;5033153;28;20061;-70
2023/07/08 01:06:19;;;;;;;7.68;4.05;;;21.90;99.90;;;;;;5033460;28;20506;-69
2023/07/08 01:09:30;;;;;;;5.55;3.53;;;21.90;99.90;;;;;;5033423;28;20499;-70
2023/07/08 01:12:40;;;;;;;6.80;3.60;;;21.80;99.90;;;;;;5032911;28;20526;-69
2023/07/08 01:15:46;;;;;;;8.18;3.83;;;21.80;99.90;;;;;;5033568;28;20291;-69
2023/07/08 01:18:53;;;;;;;9.18;4.00;;;21.80;99.90;;;;;;5033289;28;20516;-70
2023/07/08 01:21:59;;;;;;;11.02;4.93;;;21.70;99.90;;;;;;5032822;28;20040;-70
2023/07/08 01:25:05;;;;;;;8.45;3.88;;;21.60;99.90;;;;;;5033184;28;20052;-70
2023/07/08 01:28:09;;;;;;;10.15;4.70;;;21.60;99.90;;;;;;5033060;28;20049;-69
2023/07/08 01:31:13;;;;;;;7.82;4.40;;;21.50;99.90;;;;;;5032868;28;20052;-69
2023/07/08 01:34:18;;;;;;;7.65;3.78;;;21.40;99.90;;;;;;5020641;28;20048;-69
2023/07/08 01:37:23;;;;;;;7.45;3.83;;;21.40;99.90;;;;;;5032851;28;20100;-69
2023/07/08 01:40:37;;;;;;;17.70;5.18;;;21.30;99.90;;;;;;5032712;28;20064;-70
2023/07/08 01:43:42;;;;;;;6.25;4.30;;;21.30;99.90;;;;;;5032599;28;20503;-70
2023/07/08 01:46:47;;;;;;;7.63;4.47;;;21.10;99.90;;;;;;5019336;28;20044;-70
2023/07/08 01:49:51;;;;;;;8.23;4.07;;;21.10;99.90;;;;;;5032671;28;20048;-70
2023/07/08 01:52:59;;;;;;;12.35;4.53;;;21.10;99.90;;;;;;5031992;28;20415;-70
2023/07/08 01:56:04;;;;;;;8.05;4.55;;;21.10;99.90;;;;;;5019940;28;20040;-69
2023/07/08 01:59:08;;;;;;;7.97;4.22;;;21.10;99.90;;;;;;5019552;28;20036;-69
2023/07/08 02:02:12;;;;;;;9.77;4.85;;;21.00;99.90;;;;;;5019788;28;20041;-70
2023/07/08 02:05:16;;;;;;;7.85;4.60;;;21.00;99.90;;;;;;5032154;28;20498;-69
2023/07/08 02:08:21;;;;;;;7.63;4.55;;;21.10;99.90;;;;;;5031848;28;20060;-69
2023/07/08 02:11:25;;;;;;;9.60;5.53;;;21.10;99.90;;;;;;5019540;28;20526;-69
2023/07/08 02:14:29;;;;;;;9.18;4.90;;;21.00;99.90;;;;;;5020117;28;20056;-69
2023/07/08 02:17:33;;;;;;;8.52;4.25;;;20.90;99.90;;;;;;5031887;28;20037;-69
2023/07/08 02:20:37;;;;;;;9.82;5.25;;;20.90;99.90;;;;;;5019856;28;20064;-70
2023/07/08 02:23:41;;;;;;;10.13;4.10;;;20.80;99.90;;;;;;5032256;28;20060;-70
2023/07/08 02:26:47;;;;;;;13.23;4.03;;;20.70;99.90;;;;;;5031922;28;20056;-69
2023/07/08 02:29:51;;;;;;;7.72;4.22;;;20.60;99.90;;;;;;5031998;28;20088;-69
2023/07/08 02:32:57;;;;;;;8.55;4.63;;;20.60;99.90;;;;;;5031665;28;20052;-70
2023/07/08 02:36:01;;;;;;;8.10;4.50;;;20.50;99.90;;;;;;5031854;28;20052;-69
2023/07/08 02:39:06;;;;;;;9.13;4.15;;;20.50;99.90;;;;;;5018921;28;20049;-70
2023/07/08 02:42:10;;;;;;;9.20;4.32;;;20.40;99.90;;;;;;5018856;28;20060;-69
2023/07/08 02:45:15;;;;;;;12.35;4.85;;;20.30;99.90;;;;;;5031387;28;20040;-69
2023/07/08 02:48:20;;;;;;;8.15;4.57;;;20.20;99.90;;;;;;5019035;28;20060;-70
2023/07/08 02:51:23;;;;;;;7.38;4.35;;;20.20;99.90;;;;;;5031081;28;20056;-69
2023/07/08 02:54:27;;;;;;;11.55;4.63;;;20.10;99.90;;;;;;5031107;28;20043;-70
2023/07/08 02:57:31;;;;;;;7.65;4.53;;;20.00;99.90;;;;;;5018601;28;20056;-69
2023/07/08 03:00:37;;;;;;;8.85;5.07;;;20.00;99.90;;;;;;5018704;28;20053;-69
2023/07/08 03:03:41;;;;;;;9.32;4.65;;;20.00;99.90;;;;;;5030723;28;20052;-69
2023/07/08 03:06:45;;;;;;;10.68;4.97;;;20.00;99.90;;;;;;5031049;28;20036;-69
2023/07/08 03:09:49;;;;;;;8.35;4.50;;;20.00;99.90;;;;;;5018640;28;20048;-69
2023/07/08 03:12:53;;;;;;;12.25;5.10;;;20.00;99.90;;;;;;5030455;28;20053;-70
2023/07/08 03:16:01;;;;;;;13.13;5.40;;;20.00;99.90;;;;;;5018744;28;20068;-70
2023/07/08 03:19:10;;;;;;;7.28;4.53;;;20.00;99.90;;;;;;5007061;28;20037;-69
2023/07/08 03:22:15;;;;;;;9.50;4.95;;;20.00;99.90;;;;;;5018427;28;20044;-69
2023/07/08 03:25:19;;;;;;;7.57;4.60;;;19.90;99.90;;;;;;5030580;28;20045;-68
2023/07/08 03:28:25;;;;;;;9.50;4.70;;;19.90;99.90;;;;;;5018275;28;20040;-69
2023/07/08 03:31:31;;;;;;;6.85;4.47;;;19.90;99.90;;;;;;5018255;28;20064;-69
2023/07/08 03:34:36;;;;;;;8.18;4.47;;;19.90;99.90;;;;;;5018278;28;20044;-69
2023/07/08 03:37:41;;;;;;;8.02;4.72;;;19.90;99.90;;;;;;5030844;28;20052;-69
2023/07/08 03:40:45;;;;;;;10.55;5.10;;;19.80;99.90;;;;;;5018395;28;20047;-69
2023/07/08 03:43:50;;;;;;;8.85;4.78;;;19.90;99.90;;;;;;5018430;28;20044;-69
2023/07/08 03:46:55;;;;;;;10.30;4.55;;;19.80;99.90;;;;;;5017994;28;20048;-69
2023/07/08 03:49:59;;;;;;;15.85;5.25;;;19.90;99.90;;;;;;5030071;28;20031;-69
2023/07/08 03:53:04;;;;;;;9.43;4.63;;;20.00;99.90;;;;;;5017553;28;20032;-69
2023/07/08 03:56:13;;;;;;;9.57;4.07;;;19.90;99.90;;;;;;5018221;28;20049;-69
2023/07/08 03:59:18;;;;;;;9.95;4.30;;;19.90;99.90;;;;;;5006566;28;20250;-69
2023/07/08 04:02:23;;;;;;;8.20;4.65;;;20.00;99.90;;;;;;5017742;28;20040;-69
2023/07/08 04:05:27;;;;;;;6.47;4.25;;;19.70;99.90;;;;;;5030174;28;20056;-69
2023/07/08 04:08:31;;;;;;;8.48;4.55;;;19.50;99.90;;;;;;5029804;28;20407;-69
2023/07/08 04:11:35;;;;;;;13.45;4.90;;;19.50;99.90;;;;;;5029892;28;20523;-69
2023/07/08 04:14:42;;;;;;;8.95;5.05;;;19.50;99.90;;;;;;5029850;28;20052;-69
2023/07/08 04:17:48;;;;;;;10.35;4.95;;;19.60;99.90;;;;;;5030090;28;20044;-69
2023/07/08 04:20:52;;;;;;;9.52;4.47;;;19.70;99.90;;;;;;5017567;28;20036;-69
2023/07/08 04:23:58;;;;;;;9.68;4.82;;;19.80;99.90;;;;;;5029953;28;20044;-69
2023/07/08 04:27:02;;;;;;;9.90;5.53;;;19.80;99.90;;;;;;5017459;28;20057;-69
2023/07/08 04:30:06;;;;;;;10.27;4.72;;;20.00;99.90;;;;;;5029837;28;20057;-69
2023/07/08 04:33:13;;;;;;;10.90;5.30;;;20.00;99.90;;;;;;5027994;28;20048;-69
2023/07/08 04:36:17;;;;;;;9.65;5.65;;;20.40;99.90;;;;;;5029954;28;20036;-69
2023/07/08 04:39:21;;;;;;;6.43;4.30;;;21.70;99.90;;;;;;5027115;28;20399;-69
2023/07/08 04:42:28;;;;;;;7.38;4.38;;;23.20;99.90;;;;;;5029826;28;20046;-69
2023/07/08 04:45:33;;;;;;;7.45;4.70;;;24.40;99.90;;;;;;5027234;28;20057;-69
2023/07/08 04:48:36;;;;;;;7.43;4.20;;;25.50;99.90;;;;;;5010596;28;20045;-70
2023/07/08 04:51:41;;;;;;;7.53;3.92;;;26.40;99.90;;;;;;5010059;28;20048;-70
2023/07/08 04:54:45;;;;;;;9.35;4.30;;;27.20;99.90;;;;;;5010597;28;20508;-70
2023/07/08 04:57:49;;;;;;;8.32;4.22;;;28.00;99.90;;;;;;5025647;28;20052;-71
2023/07/08 05:00:53;;;;;;;8.60;4.15;;;28.70;99.90;;;;;;5009600;28;20045;-69
2023/07/08 05:03:57;;;;;;;9.32;4.00;;;29.50;99.90;;;;;;5010442;28;20388;-68
2023/07/08 05:07:01;;;;;;;9.45;4.47;;;30.00;99.90;;;;;;5010214;28;20052;-70
2023/07/08 05:10:05;;;;;;;7.00;3.60;;;30.70;99.90;;;;;;5020231;28;20056;-70
2023/07/08 05:13:10;;;;;;;9.85;3.67;;;31.00;99.90;;;;;;5020469;28;20041;-70
2023/07/08 05:16:14;;;;;;;7.85;4.05;;;31.30;99.90;;;;;;5018351;28;20060;-76
2023/07/08 05:19:18;;;;;;;10.18;3.88;;;31.50;99.60;;;;;;5030556;28;20044;-76
2023/07/08 05:22:25;;;;;;;6.35;4.07;;;31.60;99.20;;;;;;5038151;28;20064;-76
2023/07/08 05:25:32;;;;;;;7.13;3.75;;;32.00;98.80;;;;;;5034063;28;20334;-76
2023/07/08 05:28:36;;;;;;;7.15;3.75;;;32.30;98.10;;;;;;5033638;28;20487;-77
2023/07/08 05:31:40;;;;;;;8.02;3.60;;;32.50;97.30;;;;;;5033265;28;20060;-77
2023/07/08 05:34:44;;;;;;;9.38;3.67;;;32.70;96.80;;;;;;5033554;28;20494;-76
2023/07/08 05:37:48;;;;;;;6.28;3.90;;;33.10;95.60;;;;;;5033385;28;20117;-76
2023/07/08 05:40:57;;;;;;;7.40;4.40;;;33.50;94.80;;;;;;5033255;28;20052;-77
2023/07/08 05:44:01;;;;;;;10.38;5.38;;;33.30;94.40;;;;;;5033341;28;20060;-77
2023/07/08 05:47:05;;;;;;;12.65;5.57;;;33.50;94.20;;;;;;5033481;28;20045;-77
2023/07/08 05:50:09;;;;;;;11.93;4.47;;;34.30;93.70;;;;;;5033505;28;20299;-77
2023/07/08 05:53:13;;;;;;;9.70;6.78;;;34.20;92.90;;;;;;5033300;28;20527;-77
2023/07/08 05:56:17;;;;;;;8.23;3.75;;;34.30;91.50;;;;;;5033457;28;20052;-77
2023/07/08 05:59:21;;;;;;;9.80;3.78;;;34.70;91.30;;;;;;5020807;28;20396;-78
2023/07/08 06:02:26;;;;;;;7.20;3.30;;;34.70;91.50;;;;;;5032495;28;20044;-77
2023/07/08 06:05:30;;;;;;;6.88;3.50;;;33.60;91.10;;;;;;5033214;28;20074;-76
2023/07/08 06:08:34;;;;;;;6.90;3.78;;;31.90;91.20;;;;;;5033030;28;20388;-76
2023/07/08 06:11:37;;;;;;;10.77;4.40;;;29.60;94.30;;;;;;5032387;28;20048;-75
2023/07/08 06:14:42;;;;;;;6.63;4.10;;;26.30;97.20;;;;;;5032901;28;20052;-75
2023/07/08 06:17:46;;;;;;;6.78;4.18;;;24.20;99.90;;;;;;5033254;28;20060;-73
2023/07/08 06:20:55;;;;;;;8.10;4.63;;;22.90;99.90;;;;;;5032827;28;20510;-73
2023/07/08 06:23:59;;;;;;;8.70;4.88;;;22.30;99.90;;;;;;5033296;28;20078;-74
2023/07/08 06:27:04;;;;;;;9.77;4.50;;;22.50;99.90;;;;;;5020558;28;20487;-73
2023/07/08 06:30:08;;;;;;;30.67;4.72;;;23.20;99.90;;;;;;5032348;28;20044;-74
2023/07/08 06:33:13;;;;;;;8.63;4.50;;;23.70;99.90;;;;;;5031639;28;20049;-74
2023/07/08 06:36:17;;;;;;;10.35;3.83;;;24.20;99.90;;;;;;5032293;28;20044;-76
2023/07/08 06:39:21;;;;;;;8.63;4.05;;;25.50;99.90;;;;;;5032494;28;20045;-76
2023/07/08 06:42:25;;;;;;;9.38;4.22;;;27.20;99.90;;;;;;5032113;28;20052;-75
2023/07/08 06:45:42;;;;;;;8.52;4.38;;;28.40;99.90;;;;;;5020299;28;20417;-76
2023/07/08 06:48:46;;;;;;;7.43;3.88;;;28.20;99.20;;;;;;5032073;28;20384;-76
2023/07/08 06:51:50;;;;;;;10.13;3.90;;;27.70;99.80;;;;;;5028379;28;20099;-76
2023/07/08 06:54:53;;;;;;;5.93;3.92;;;27.90;99.90;;;;;;5019913;28;20404;-76
2023/07/08 06:57:57;;;;;;;6.25;3.83;;;28.60;99.10;;;;;;5031750;28;20068;-77
2023/07/08 07:01:02;;;;;;;8.05;3.20;;;29.80;98.30;;;;;;5031876;28;20048;-76
2023/07/08 07:04:06;;;;;;;6.63;3.60;;;31.60;96.30;;;;;;5032049;28;20040;-76
2023/07/08 07:07:09;;;;;;;7.05;3.85;;;32.60;94.30;;;;;;5032673;28;20040;-75
2023/07/08 07:10:14;;;;;;;7.70;3.90;;;29.70;94.30;;;;;;5031924;28;20040;-76
2023/07/08 07:13:17;;;;;;;7.97;4.50;;;28.70;93.50;;;;;;5031682;28;20044;-76
2023/07/08 07:16:22;;;;;;;10.27;4.22;;;28.30;90.80;;;;;;5031942;28;20045;-76
2023/07/08 07:19:27;;;;;;;7.35;4.15;;;27.70;93.60;;;;;;5016070;28;20040;-75
2023/07/08 07:22:30;;;;;;;7.15;3.63;;;27.80;93.40;;;;;;5031905;28;20396;-75
2023/07/08 07:25:34;;;;;;;8.30;3.90;;;27.60;93.10;;;;;;5031666;28;20049;-76
2023/07/08 07:28:41;;;;;;;8.10;4.13;;;28.20;95.40;;;;;;5031653;28;20048;-76
2023/07/08 07:31:47;;;;;;;5.60;3.42;;;28.30;92.90;;;;;;5031208;28;20064;-76
2023/07/08 07:34:51;;;;;;;8.30;4.38;;;28.80;94.00;;;;;;5031794;28;20040;-77
2023/07/08 07:37:55;;;;;;;8.13;4.07;;;30.80;92.20;;;;;;5032014;28;20053;-76
2023/07/08 07:41:00;;;;;;;5.70;3.85;;;33.00;88.70;;;;;;5031295;28;20052;-77
2023/07/08 07:44:04;;;;;;;7.45;4.03;;;34.70;85.50;;;;;;5030895;28;20049;-77
2023/07/08 07:47:09;;;;;;;6.35;3.90;;;33.20;85.30;;;;;;5031683;28;20072;-76
2023/07/08 07:50:12;;;;;;;6.07;3.85;;;32.30;86.30;;;;;;5031289;28;20052;-77
2023/07/08 07:53:16;;;;;;;8.85;3.90;;;31.80;87.90;;;;;;5007177;28;20503;-76
2023/07/08 07:56:21;;;;;;;7.68;4.10;;;31.10;89.80;;;;;;5030892;28;20049;-76
2023/07/08 07:59:25;;;;;;;6.05;3.83;;;29.60;91.80;;;;;;5031169;28;20044;-75
2023/07/08 08:02:29;;;;;;;7.28;4.07;;;27.60;93.30;;;;;;5030797;28;20041;-74
2023/07/08 08:05:33;;;;;;;9.88;4.63;;;26.20;95.00;;;;;;5031540;28;20130;-74
2023/07/08 08:08:37;;;;;;;5.43;4.10;;;25.80;96.00;;;;;;5007931;28;20045;-75
2023/07/08 08:11:41;;;;;;;8.90;4.55;;;25.50;97.00;;;;;;5030626;28;20048;-74
2023/07/08 08:14:46;;;;;;;10.00;4.35;;;25.60;97.80;;;;;;5031189;28;20048;-75
2023/07/08 08:17:51;;;;;;;10.18;4.40;;;27.20;97.10;;;;;;5031002;28;20044;-76
2023/07/08 08:20:55;;;;;;;6.60;3.67;;;28.20;96.80;;;;;;5030903;28;20056;-77
2023/07/08 08:24:00;;;;;;;8.95;4.50;;;29.10;94.90;;;;;;5030908;28;20398;-77
2023/07/08 08:27:04;;;;;;;10.98;5.45;;;29.00;95.30;;;;;;5018613;28;20413;-77
2023/07/08 08:30:08;;;;;;;8.57;4.38;;;29.10;95.20;;;;;;5030707;28;20053;-76
2023/07/08 08:33:12;;;;;;;7.35;4.53;;;31.20;94.20;;;;;;5030487;28;20388;-75
2023/07/08 08:36:16;;;;;;;11.45;4.30;;;31.70;93.10;;;;;;5030948;28;20044;-76
2023/07/08 08:39:20;;;;;;;9.40;4.03;;;32.50;92.80;;;;;;5031085;28;20044;-76
2023/07/08 08:42:34;;;;;;;10.98;4.35;;;33.70;92.30;;;;;;5030002;28;20049;-76
2023/07/08 08:45:47;;;;;;;7.65;3.90;;;34.00;91.50;;;;;;5030717;28;20059;-76
2023/07/08 08:49:12;;;;;;;5.88;3.83;;;36.00;90.60;;;;;;5031057;28;20048;-77
2023/07/08 08:52:16;;;;;;;8.07;3.88;;;36.40;88.10;;;;;;5030597;28;20048;-76
2023/07/08 08:55:20;;;;;;;5.88;3.53;;;38.10;84.30;;;;;;5030679;28;20519;-76
2023/07/08 08:58:43;;;;;;;8.23;3.90;;;37.70;83.30;;;;;;5035149;28;20041;-77
2023/07/08 09:01:48;;;;;;;6.90;3.83;;;35.50;85.60;;;;;;5034004;28;20052;-78
2023/07/08 09:04:52;;;;;;;6.07;4.43;;;34.20;86.70;;;;;;5022198;28;20057;-77
2023/07/08 09:08:10;;;;;;;8.90;3.88;;;32.80;89.60;;;;;;5034230;28;20439;-76
2023/07/08 09:11:25;;;;;;;9.00;4.63;;;31.60;90.60;;;;;;5034132;28;20044;-76
2023/07/08 09:14:32;;;;;;;9.13;4.22;;;30.80;91.40;;;;;;5034265;28;20072;-76
2023/07/08 09:17:38;;;;;;;10.27;4.90;;;30.30;93.10;;;;;;5034060;28;20404;-76
2023/07/08 09:20:43;;;;;;;10.90;4.35;;;30.00;93.90;;;;;;5022742;28;20052;-75
2023/07/08 09:23:52;;;;;;;7.55;3.97;;;29.70;94.40;;;;;;5033737;28;20392;-76
2023/07/08 09:26:59;;;;;;;11.38;5.03;;;31.00;94.40;;;;;;5033886;28;20491;-76
2023/07/08 09:30:04;;;;;;;11.90;3.90;;;34.80;92.10;;;;;;5034058;28;20061;-75
2023/07/08 09:33:09;;;;;;;7.95;4.05;;;35.30;87.00;;;;;;5033491;28;20044;-76
2023/07/08 09:36:19;;;;;;;7.15;4.07;;;37.90;87.50;;;;;;5034766;28;20403;-76
2023/07/08 09:39:23;;;;;;;8.63;3.85;;;35.80;86.50;;;;;;5033837;28;20045;-77
2023/07/08 09:42:31;;;;;;;8.07;4.05;;;38.50;84.70;;;;;;5032629;28;20044;-76
2023/07/08 09:45:47;;;;;;;10.20;3.50;;;41.40;86.10;;;;;;5033438;28;20045;-74
2023/07/08 09:48:51;;;;;;;7.35;3.67;;;43.90;80.70;;;;;;5033366;28;20507;-77
2023/07/08 09:51:55;;;;;;;6.85;3.25;;;45.50;77.10;;;;;;5033022;28;20380;-76
2023/07/08 09:55:00;;;;;;;6.40;3.40;;;46.60;75.50;;;;;;5032906;28;20052;-75
2023/07/08 09:58:05;;;;;;;9.55;3.30;;;47.60;72.80;;;;;;5032902;28;20045;-75
2023/07/08 10:01:18;;;;;;;3.95;3.13;;;48.70;69.10;;;;;;5032780;28;20048;-76
2023/07/08 10:04:22;;;;;;;5.20;3.40;;;49.20;67.10;;;;;;5033181;28;20146;-78
2023/07/08 10:07:31;;;;;;;7.65;3.90;;;49.30;65.90;;;;;;5032818;28;20041;-74
2023/07/08 10:10:38;;;;;;;6.00;3.63;;;49.00;64.20;;;;;;5033467;28;20045;-76
2023/07/08 10:13:47;;;;;;;10.07;3.30;;;47.80;64.70;;;;;;5031343;28;20061;-77
2023/07/08 10:16:51;;;;;;;8.00;3.53;;;48.20;65.10;;;;;;5029241;28;20049;-75
2023/07/08 10:19:56;;;;;;;7.10;3.38;;;48.20;64.10;;;;;;5030304;28;20048;-75
2023/07/08 10:23:20;;;;;;;5.93;3.75;;;48.80;63.90;;;;;;5012443;28;20052;-74
2023/07/08 10:26:32;;;;;;;5.97;3.70;;;49.60;62.10;;;;;;5012783;28;20050;-76
2023/07/08 10:29:46;;;;;;;8.50;3.50;;;49.30;62.00;;;;;;5012723;28;20041;-77
2023/07/08 10:33:08;;;;;;;3.95;3.42;;;49.70;60.30;;;;;;5012662;28;20420;-75
2023/07/08 10:36:42;;;;;;;9.90;3.80;;;49.70;61.70;;;;;;5012546;28;20504;-75
2023/07/08 10:40:14;;;;;;;7.55;3.92;;;48.80;60.80;;;;;;5012229;28;20045;-76
2023/07/08 10:43:46;;;;;;;10.88;3.65;;;48.20;60.70;;;;;;5012047;28;20415;-77
2023/07/08 10:47:08;;;;;;;5.30;3.28;;;47.90;59.80;;;;;;5000268;28;20528;-75
2023/07/08 10:50:12;;;;;;;9.80;3.50;;;48.10;61.50;;;;;;5011231;28;20052;-76
2023/07/08 10:53:40;;;;;;;4.97;3.47;;;47.80;60.40;;;;;;5012430;28;20048;-74
2023/07/08 10:57:00;;;;;;;9.43;4.93;;;47.70;61.20;;;;;;5012305;28;20045;-75
2023/07/08 11:00:13;;;;;;;5.60;3.47;;;48.10;60.50;;;;;;5012363;28;20045;-76
2023/07/08 11:03:30;;;;;;;4.97;3.30;;;48.70;60.10;;;;;;5011973;28;20052;-75
2023/07/08 11:06:42;;;;;;;7.03;3.17;;;49.00;58.80;;;;;;5030167;28;20499;-77
2023/07/08 11:09:56;;;;;;;5.70;3.70;;;49.20;58.90;;;;;;5018822;28;20045;-76
2023/07/08 11:13:05;;;;;;;6.68;3.28;;;48.90;57.90;;;;;;5031259;28;20045;-76
2023/07/08 11:16:29;;;;;;;6.05;3.40;;;48.20;59.20;;;;;;5032039;28;20376;-75
2023/07/08 11:19:39;;;;;;;3.85;2.95;;;47.90;59.00;;;;;;5030562;28;20044;-75
2023/07/08 11:22:57;;;;;;;6.18;3.88;;;47.30;59.40;;;;;;5031041;28;20044;-75
2023/07/08 11:26:23;;;;;;;5.22;3.22;;;46.90;60.80;;;;;;5031466;28;20048;-75
2023/07/08 11:29:34;;;;;;;6.15;3.38;;;46.70;58.90;;;;;;5031695;28;20053;-75
2023/07/08 11:32:41;;;;;;;4.28;3.15;;;45.50;59.60;;;;;;5030934;28;20044;-73
2023/07/08 11:35:51;;;;;;;7.57;3.45;;;43.50;63.00;;;;;;5031536;28;20048;-74
2023/07/08 11:38:57;;;;;;;5.07;3.63;;;41.90;64.40;;;;;;5031213;28;20037;-73
2023/07/08 11:42:14;;;;;;;4.72;3.65;;;42.30;63.70;;;;;;5031289;28;20388;-76
2023/07/08 11:45:17;;;;;;;7.30;3.90;;;39.90;64.80;;;;;;5031347;28;20049;-75
2023/07/08 11:48:27;;;;;;;5.60;3.70;;;39.90;65.20;;;;;;5031367;28;20052;-77
2023/07/08 11:51:39;;;;;;;6.00;3.97;;;39.00;66.30;;;;;;5030698;28;20606;-76
2023/07/08 11:54:46;;;;;;;6.05;3.53;;;39.80;65.30;;;;;;5030822;28;20044;-76
2023/07/08 11:57:56;;;;;;;4.80;3.75;;;39.20;65.30;;;;;;5030990;28;20045;-77
2023/07/08 12:01:19;;;;;;;;;;;38.70;64.10;;;;;;5031716;28;20044;-76
2023/07/08 12:04:32;;;;;;;5.05;3.38;;;38.50;63.70;;;;;;5030941;28;19919;-76
2023/07/08 12:07:41;;;;;;;7.53;3.83;;;39.40;63.90;;;;;;5031127;28;20056;-77
2023/07/08 12:10:50;;;;;;;4.47;3.15;;;39.00;63.10;;;;;;5031135;28;20037;-76
2023/07/08 12:13:58;;;;;;;9.68;3.53;;;37.60;63.30;;;;;;5030913;28;20052;-76
2023/07/08 12:17:02;;;;;;;5.18;3.75;;;36.60;63.70;;;;;;5031076;28;20056;-77
2023/07/08 12:20:31;;;;;;;11.68;3.67;;;37.90;65.50;;;;;;5030723;28;20045;-76
2023/07/08 12:23:35;;;;;;;6.05;3.80;;;38.60;63.40;;;;;;5030510;28;20048;-77
2023/07/08 12:26:40;;;;;;;5.47;3.35;;;38.90;60.70;;;;;;5030538;28;20044;-76
2023/07/08 12:29:43;;;;;;;5.63;3.40;;;37.80;62.00;;;;;;5031009;28;20043;-76
2023/07/08 12:32:47;;;;;;;7.03;3.47;;;36.70;60.80;;;;;;5034450;28;20066;-75
2023/07/08 12:35:52;;;;;;;4.60;3.45;;;37.30;64.10;;;;;;5035392;28;20049;-77
2023/07/08 12:38:57;;;;;;;6.88;3.60;;;37.20;62.80;;;;;;5034803;28;20049;-77
2023/07/08 12:42:04;;;;;;;5.65;3.40;;;38.40;63.20;;;;;;5041358;28;20124;-75
2023/07/08 12:45:20;;;;;;;5.47;3.47;;;37.20;63.20;;;;;;5035177;28;20048;-76
2023/07/08 12:48:24;;;;;;;7.47;3.65;;;37.80;63.30;;;;;;5027038;28;20029;-76
2023/07/08 12:51:29;;;;;;;7.65;3.58;;;36.90;64.70;;;;;;5027028;28;20044;-77
2023/07/08 12:54:34;;;;;;;7.28;3.90;;;36.90;64.40;;;;;;5034564;28;20050;-76
2023/07/08 12:57:41;;;;;;;7.47;3.75;;;37.60;63.00;;;;;;5035278;28;20047;-75
2023/07/08 13:00:46;;;;;;;6.65;3.50;;;37.80;65.40;;;;;;5023474;28;20036;-76
2023/07/08 13:03:52;;;;;;;5.45;3.65;;;37.10;62.30;;;;;;5021576;28;20048;-76
2023/07/08 13:06:56;;;;;;;9.23;4.00;;;37.60;64.60;;;;;;5014834;28;20037;-77
2023/07/08 13:10:03;;;;;;;6.05;3.47;;;37.40;64.30;;;;;;5014751;28;20496;-77
2023/07/08 13:13:13;;;;;;;9.35;4.03;;;36.90;65.60;;;;;;5013751;28;20041;-77
2023/07/08 13:16:17;;;;;;;5.95;3.55;;;36.90;66.20;;;;;;5014405;28;20070;-77
2023/07/08 13:19:22;;;;;;;7.40;3.60;;;36.70;65.80;;;;;;5014336;28;20717;-76
2023/07/08 13:22:30;;;;;;;8.90;3.55;;;37.50;63.20;;;;;;5026135;28;20044;-76
2023/07/08 13:25:38;;;;;;;10.20;3.78;;;37.90;64.40;;;;;;5014448;28;20053;-75
2023/07/08 13:28:44;;;;;;;7.07;3.83;;;37.80;65.00;;;;;;5014402;28;20049;-76
2023/07/08 13:31:53;;;;;;;7.72;3.67;;;35.50;66.10;;;;;;5013909;28;20131;-76
2023/07/08 13:34:57;;;;;;;12.52;4.00;;;34.60;67.50;;;;;;5014048;28;20045;-76
2023/07/08 13:38:01;;;;;;;6.00;3.75;;;35.20;69.50;;;;;;5013839;28;20044;-75
2023/07/08 13:41:08;;;;;;;7.32;3.88;;;35.30;67.70;;;;;;5014485;28;20514;-76
2023/07/08 13:44:12;;;;;;;7.80;4.10;;;35.30;65.40;;;;;;5014192;28;20053;-76
2023/07/08 13:47:29;;;;;;;10.05;3.63;;;35.50;66.90;;;;;;5014306;28;20048;-76
2023/07/08 13:50:44;;;;;;;7.07;3.50;;;35.00;65.80;;;;;;5013708;28;20389;-76
2023/07/08 13:53:54;;;;;;;6.03;3.92;;;34.50;67.10;;;;;;5013864;28;20073;-75
2023/07/08 13:57:01;;;;;;;8.57;3.87;;;34.70;66.00;;;;;;5014426;28;20045;-75
2023/07/08 14:00:07;;;;;;;7.90;3.30;;;34.10;67.10;;;;;;5013796;28;20045;-77
2023/07/08 14:03:17;;;;;;;9.43;4.68;;;34.20;67.10;;;;;;5024758;28;20392;-75
2023/07/08 14:06:28;;;;;;;6.22;4.35;;;34.50;66.50;;;;;;5033564;28;20045;-76
2023/07/08 14:09:31;;;;;;;7.27;4.00;;;35.10;67.40;;;;;;5033807;28;20044;-77
2023/07/08 14:12:35;;;;;;;9.25;3.50;;;34.70;69.10;;;;;;5032714;28;20404;-76
2023/07/08 14:15:39;;;;;;;6.07;3.65;;;34.50;69.60;;;;;;5033468;28;20050;-77
2023/07/08 14:18:43;;;;;;;6.70;4.10;;;34.00;68.50;;;;;;5033060;28;20041;-76
2023/07/08 14:21:55;;;;;;;7.95;3.55;;;34.40;67.10;;;;;;5020403;28;20044;-76
2023/07/08 14:25:10;;;;;;;8.55;3.67;;;34.70;70.10;;;;;;5033585;28;20044;-76
2023/07/08 14:28:13;;;;;;;7.18;3.20;;;35.00;69.90;;;;;;5033544;28;20048;-76
2023/07/08 14:31:23;;;;;;;7.85;3.72;;;35.30;67.00;;;;;;5032950;28;20491;-76
2023/07/08 14:34:27;;;;;;;7.35;3.63;;;35.00;67.70;;;;;;5020397;28;20049;-75
2023/07/08 14:37:32;;;;;;;6.00;3.60;;;35.50;67.10;;;;;;5033053;28;20523;-76
2023/07/08 14:40:37;;;;;;;8.30;3.95;;;35.30;68.00;;;;;;5032545;28;20036;-76
2023/07/08 14:43:43;;;;;;;6.15;3.72;;;34.30;67.50;;;;;;5033097;28;20387;-76
2023/07/08 14:46:49;;;;;;;7.68;3.95;;;34.80;68.40;;;;;;5032467;28;20053;-77
2023/07/08 14:49:53;;;;;;;5.95;3.75;;;34.90;68.30;;;;;;5033960;28;20052;-77
2023/07/08 14:52:57;;;;;;;8.43;3.55;;;34.50;67.40;;;;;;5019753;28;20056;-77
2023/07/08 14:56:11;;;;;;;8.90;4.00;;;34.60;69.10;;;;;;5031950;28;20052;-74
2023/07/08 14:59:20;;;;;;;9.40;4.40;;;34.00;71.40;;;;;;5033164;28;20044;-75
2023/07/08 15:02:24;;;;;;;9.27;4.05;;;34.00;69.40;;;;;;5031605;28;20044;-76
2023/07/08 15:05:28;;;;;;;6.13;3.45;;;34.20;71.60;;;;;;5019835;28;20060;-76
2023/07/08 15:08:34;;;;;;;6.38;3.70;;;34.30;70.30;;;;;;5031770;28;20049;-76
2023/07/08 15:11:40;;;;;;;21.52;5.25;;;34.60;70.90;;;;;;5031332;28;20503;-76
2023/07/08 15:14:44;;;;;;;9.23;3.45;;;34.80;72.20;;;;;;5031917;28;20384;-78
2023/07/08 15:17:48;;;;;;;5.63;3.63;;;35.00;73.80;;;;;;5031430;28;20388;-76
2023/07/08 15:20:52;;;;;;;8.00;3.80;;;35.00;70.60;;;;;;5032468;28;20052;-75
2023/07/08 15:23:56;;;;;;;9.75;3.78;;;35.00;68.10;;;;;;5031891;28;20044;-76
2023/07/08 15:27:03;;;;;;;8.40;3.42;;;34.80;68.10;;;;;;5031876;28;20048;-76
2023/07/08 15:30:22;;;;;;;6.20;3.33;;;34.90;68.40;;;;;;5031540;28;20499;-76
2023/07/08 15:33:26;;;;;;;8.25;3.33;;;34.70;64.70;;;;;;5031166;28;20495;-76
2023/07/08 15:36:30;;;;;;;7.47;3.28;;;34.40;69.80;;;;;;5031618;28;20048;-76
2023/07/08 15:39:34;;;;;;;8.48;3.10;;;34.40;67.30;;;;;;5031352;28;20044;-76
2023/07/08 15:42:40;;;;;;;7.45;3.33;;;34.50;67.60;;;;;;5030796;28;20044;-76
2023/07/08 15:45:45;;;;;;;6.93;3.20;;;34.60;67.60;;;;;;5038099;28;20414;-77
2023/07/08 15:48:50;;;;;;;7.32;3.58;;;34.50;67.20;;;;;;5030938;28;20041;-76
2023/07/08 15:51:54;;;;;;;9.18;3.58;;;34.30;69.20;;;;;;5030300;28;20048;-75
2023/07/08 15:54:57;;;;;;;7.57;3.75;;;34.10;68.80;;;;;;5031005;28;20052;-76
2023/07/08 15:58:27;;;;;;;6.68;3.88;;;33.40;70.20;;;;;;5030575;28;20052;-75
2023/07/08 16:01:31;;;;;;;10.23;3.72;;;33.40;68.00;;;;;;5030603;28;20392;-77
2023/07/08 16:04:35;;;;;;;7.25;4.15;;;33.60;68.70;;;;;;5018740;28;20514;-77
2023/07/08 16:07:39;;;;;;;6.53;3.53;;;33.60;70.30;;;;;;5030910;28;20052;-76
2023/07/08 16:10:48;;;;;;;5.25;3.17;;;33.60;69.20;;;;;;5030769;28;20392;-76
2023/07/08 16:13:52;;;;;;;6.63;3.33;;;33.80;68.60;;;;;;5030038;28;20036;-76